sensor_id;sensor_type;location;lat;lon;timestamp;P1;durP1;ratioP1;P2;durP2;ratioP2
15526;SDS011;7865;50.918;4.510;2024-03-25T00:03:17;12.93;;;6.80;;
15526;SDS011;7865;50.918;4.510;2024-03-25T00:08:18;10.73;;;7.10;;
15526;SDS011;7865;50.918;4.510;2024-03-25T00:13:19;9.37;;;6.63;;
15526;SDS011;7865;50.918;4.510;2024-03-25T00:18:20;8.47;;;6.43;;
15526;SDS011;7865;50.918;4.510;2024-03-25T00:23:22;10.80;;;6.87;;
15526;SDS011;7865;50.918;4.510;2024-03-25T00:28:23;10.47;;;6.10;;
15526;SDS011;7865;50.918;4.510;2024-03-25T00:33:24;11.07;;;5.77;;
15526;SDS011;7865;50.918;4.510;2024-03-25T00:38:25;9.17;;;5.83;;
15526;SDS011;7865;50.918;4.510;2024-03-25T00:43:26;11.53;;;6.60;;
15526;SDS011;7865;50.918;4.510;2024-03-25T00:48:28;10.67;;;6.10;;
15526;SDS011;7865;50.918;4.510;2024-03-25T00:53:29;12.00;;;6.07;;
15526;SDS011;7865;50.918;4.510;2024-03-25T00:58:30;10.57;;;6.87;;
15526;SDS011;7865;50.918;4.510;2024-03-25T01:03:31;11.17;;;6.07;;
15526;SDS011;7865;50.918;4.510;2024-03-25T01:08:32;10.77;;;6.03;;
15526;SDS011;7865;50.918;4.510;2024-03-25T01:13:33;14.83;;;5.90;;
15526;SDS011;7865;50.918;4.510;2024-03-25T01:18:34;10.20;;;5.53;;
15526;SDS011;7865;50.918;4.510;2024-03-25T01:23:36;11.93;;;5.47;;
15526;SDS011;7865;50.918;4.510;2024-03-25T01:28:37;10.70;;;4.90;;
15526;SDS011;7865;50.918;4.510;2024-03-25T01:33:38;9.47;;;5.07;;
15526;SDS011;7865;50.918;4.510;2024-03-25T01:38:39;10.13;;;5.33;;
15526;SDS011;7865;50.918;4.510;2024-03-25T01:43:40;7.80;;;4.60;;
15526;SDS011;7865;50.918;4.510;2024-03-25T01:48:42;6.37;;;4.43;;
15526;SDS011;7865;50.918;4.510;2024-03-25T01:53:44;7.20;;;4.57;;
15526;SDS011;7865;50.918;4.510;2024-03-25T01:58:47;7.43;;;4.00;;
15526;SDS011;7865;50.918;4.510;2024-03-25T02:03:48;11.07;;;3.87;;
15526;SDS011;7865;50.918;4.510;2024-03-25T02:08:50;4.93;;;4.20;;
15526;SDS011;7865;50.918;4.510;2024-03-25T02:13:53;6.77;;;4.20;;
15526;SDS011;7865;50.918;4.510;2024-03-25T02:18:54;10.57;;;4.47;;
15526;SDS011;7865;50.918;4.510;2024-03-25T02:23:56;8.50;;;4.90;;
15526;SDS011;7865;50.918;4.510;2024-03-25T02:29:01;7.67;;;4.53;;
15526;SDS011;7865;50.918;4.510;2024-03-25T02:34:03;9.87;;;4.07;;
15526;SDS011;7865;50.918;4.510;2024-03-25T02:39:04;11.13;;;4.70;;
15526;SDS011;7865;50.918;4.510;2024-03-25T02:44:05;11.07;;;4.90;;
15526;SDS011;7865;50.918;4.510;2024-03-25T02:49:07;12.70;;;5.80;;
15526;SDS011;7865;50.918;4.510;2024-03-25T02:54:08;14.50;;;6.40;;
15526;SDS011;7865;50.918;4.510;2024-03-25T02:59:09;15.53;;;6.23;;
15526;SDS011;7865;50.918;4.510;2024-03-25T03:04:10;19.53;;;7.20;;
15526;SDS011;7865;50.918;4.510;2024-03-25T03:09:11;13.50;;;6.53;;
15526;SDS011;7865;50.918;4.510;2024-03-25T03:14:13;13.70;;;6.27;;
15526;SDS011;7865;50.918;4.510;2024-03-25T03:19:14;14.40;;;6.43;;
15526;SDS011;7865;50.918;4.510;2024-03-25T03:24:15;15.50;;;6.80;;
15526;SDS011;7865;50.918;4.510;2024-03-25T03:29:16;12.00;;;7.10;;
15526;SDS011;7865;50.918;4.510;2024-03-25T03:34:19;14.73;;;6.93;;
15526;SDS011;7865;50.918;4.510;2024-03-25T03:39:20;17.17;;;6.73;;
15526;SDS011;7865;50.918;4.510;2024-03-25T03:44:21;17.63;;;7.57;;
15526;SDS011;7865;50.918;4.510;2024-03-25T03:49:22;19.77;;;8.13;;
15526;SDS011;7865;50.918;4.510;2024-03-25T03:54:23;17.60;;;8.43;;
15526;SDS011;7865;50.918;4.510;2024-03-25T03:59:25;20.90;;;8.57;;
15526;SDS011;7865;50.918;4.510;2024-03-25T04:04:27;23.73;;;8.83;;
15526;SDS011;7865;50.918;4.510;2024-03-25T04:09:28;20.93;;;8.47;;
15526;SDS011;7865;50.918;4.510;2024-03-25T04:14:31;22.33;;;9.03;;
15526;SDS011;7865;50.918;4.510;2024-03-25T04:19:33;25.60;;;9.67;;
15526;SDS011;7865;50.918;4.510;2024-03-25T04:24:35;19.43;;;9.43;;
15526;SDS011;7865;50.918;4.510;2024-03-25T04:29:36;25.90;;;9.27;;
15526;SDS011;7865;50.918;4.510;2024-03-25T04:34:37;23.20;;;9.77;;
15526;SDS011;7865;50.918;4.510;2024-03-25T04:39:39;26.67;;;11.00;;
15526;SDS011;7865;50.918;4.510;2024-03-25T04:44:40;22.23;;;10.77;;
15526;SDS011;7865;50.918;4.510;2024-03-25T04:49:41;28.33;;;11.13;;
15526;SDS011;7865;50.918;4.510;2024-03-25T04:54:43;31.33;;;13.70;;
15526;SDS011;7865;50.918;4.510;2024-03-25T04:59:44;32.67;;;13.33;;
15526;SDS011;7865;50.918;4.510;2024-03-25T05:04:45;31.53;;;13.90;;
15526;SDS011;7865;50.918;4.510;2024-03-25T05:09:46;32.40;;;15.03;;
15526;SDS011;7865;50.918;4.510;2024-03-25T05:14:47;36.43;;;14.73;;
15526;SDS011;7865;50.918;4.510;2024-03-25T05:19:49;33.83;;;14.60;;
15526;SDS011;7865;50.918;4.510;2024-03-25T05:24:51;39.23;;;14.93;;
15526;SDS011;7865;50.918;4.510;2024-03-25T05:29:52;39.40;;;16.07;;
15526;SDS011;7865;50.918;4.510;2024-03-25T05:34:53;33.33;;;14.53;;
15526;SDS011;7865;50.918;4.510;2024-03-25T05:39:55;45.23;;;17.13;;
15526;SDS011;7865;50.918;4.510;2024-03-25T05:44:56;44.17;;;17.47;;
15526;SDS011;7865;50.918;4.510;2024-03-25T05:49:57;39.90;;;16.93;;
15526;SDS011;7865;50.918;4.510;2024-03-25T05:54:58;37.17;;;15.83;;
15526;SDS011;7865;50.918;4.510;2024-03-25T05:59:59;35.93;;;16.67;;
15526;SDS011;7865;50.918;4.510;2024-03-25T06:05:01;44.73;;;19.13;;
15526;SDS011;7865;50.918;4.510;2024-03-25T06:10:02;52.90;;;20.80;;
15526;SDS011;7865;50.918;4.510;2024-03-25T06:15:03;44.47;;;19.87;;
15526;SDS011;7865;50.918;4.510;2024-03-25T06:20:05;41.83;;;19.93;;
15526;SDS011;7865;50.918;4.510;2024-03-25T06:25:06;45.73;;;20.13;;
15526;SDS011;7865;50.918;4.510;2024-03-25T06:30:08;42.17;;;19.80;;
15526;SDS011;7865;50.918;4.510;2024-03-25T06:35:28;44.07;;;18.67;;
15526;SDS011;7865;50.918;4.510;2024-03-25T06:40:29;43.80;;;18.33;;
15526;SDS011;7865;50.918;4.510;2024-03-25T06:45:30;44.80;;;17.83;;
15526;SDS011;7865;50.918;4.510;2024-03-25T06:50:31;37.17;;;15.80;;
15526;SDS011;7865;50.918;4.510;2024-03-25T06:55:32;38.10;;;15.57;;
15526;SDS011;7865;50.918;4.510;2024-03-25T07:00:34;36.63;;;15.13;;
15526;SDS011;7865;50.918;4.510;2024-03-25T07:05:35;39.97;;;15.80;;
15526;SDS011;7865;50.918;4.510;2024-03-25T07:10:36;37.47;;;15.57;;
15526;SDS011;7865;50.918;4.510;2024-03-25T07:15:37;40.00;;;16.40;;
15526;SDS011;7865;50.918;4.510;2024-03-25T07:20:42;36.47;;;15.07;;
15526;SDS011;7865;50.918;4.510;2024-03-25T07:25:44;36.33;;;13.93;;
15526;SDS011;7865;50.918;4.510;2024-03-25T07:30:45;33.40;;;13.63;;
15526;SDS011;7865;50.918;4.510;2024-03-25T07:35:47;23.83;;;10.97;;
15526;SDS011;7865;50.918;4.510;2024-03-25T07:40:49;25.47;;;9.73;;
15526;SDS011;7865;50.918;4.510;2024-03-25T07:45:50;20.00;;;10.33;;
15526;SDS011;7865;50.918;4.510;2024-03-25T07:50:51;18.43;;;9.50;;
15526;SDS011;7865;50.918;4.510;2024-03-25T07:55:52;18.67;;;9.63;;
15526;SDS011;7865;50.918;4.510;2024-03-25T08:00:53;24.17;;;9.23;;
15526;SDS011;7865;50.918;4.510;2024-03-25T08:05:54;17.67;;;8.07;;
15526;SDS011;7865;50.918;4.510;2024-03-25T08:10:55;13.20;;;7.87;;
15526;SDS011;7865;50.918;4.510;2024-03-25T08:15:57;23.40;;;9.20;;
15526;SDS011;7865;50.918;4.510;2024-03-25T08:20:58;24.17;;;8.63;;
15526;SDS011;7865;50.918;4.510;2024-03-25T08:26:00;19.33;;;7.90;;
15526;SDS011;7865;50.918;4.510;2024-03-25T08:31:02;16.93;;;8.53;;
15526;SDS011;7865;50.918;4.510;2024-03-25T08:36:03;17.43;;;8.27;;
15526;SDS011;7865;50.918;4.510;2024-03-25T08:41:05;15.30;;;7.93;;
15526;SDS011;7865;50.918;4.510;2024-03-25T08:46:06;17.67;;;8.77;;
15526;SDS011;7865;50.918;4.510;2024-03-25T08:51:07;14.37;;;7.73;;
15526;SDS011;7865;50.918;4.510;2024-03-25T08:56:09;16.52;;;7.68;;
15526;SDS011;7865;50.918;4.510;2024-03-25T09:01:10;16.93;;;7.03;;
15526;SDS011;7865;50.918;4.510;2024-03-25T09:06:15;14.90;;;6.57;;
15526;SDS011;7865;50.918;4.510;2024-03-25T09:11:18;16.43;;;7.47;;
15526;SDS011;7865;50.918;4.510;2024-03-25T09:16:19;14.93;;;6.80;;
15526;SDS011;7865;50.918;4.510;2024-03-25T09:21:20;14.15;;;5.78;;
15526;SDS011;7865;50.918;4.510;2024-03-25T09:26:22;8.18;;;4.20;;
15526;SDS011;7865;50.918;4.510;2024-03-25T09:31:23;12.10;;;5.40;;
15526;SDS011;7865;50.918;4.510;2024-03-25T09:36:27;11.70;;;5.40;;
15526;SDS011;7865;50.918;4.510;2024-03-25T09:41:28;14.13;;;4.85;;
15526;SDS011;7865;50.918;4.510;2024-03-25T09:46:36;11.55;;;4.82;;
15526;SDS011;7865;50.918;4.510;2024-03-25T09:51:37;6.80;;;4.18;;
15526;SDS011;7865;50.918;4.510;2024-03-25T09:56:38;7.10;;;3.63;;
15526;SDS011;7865;50.918;4.510;2024-03-25T10:01:41;9.35;;;3.70;;
15526;SDS011;7865;50.918;4.510;2024-03-25T10:06:42;8.18;;;3.80;;
15526;SDS011;7865;50.918;4.510;2024-03-25T10:11:43;6.22;;;3.63;;
15526;SDS011;7865;50.918;4.510;2024-03-25T10:16:49;7.53;;;3.50;;
15526;SDS011;7865;50.918;4.510;2024-03-25T10:21:52;7.63;;;3.60;;
15526;SDS011;7865;50.918;4.510;2024-03-25T10:27:02;8.68;;;3.95;;
15526;SDS011;7865;50.918;4.510;2024-03-25T10:32:03;9.85;;;4.03;;
15526;SDS011;7865;50.918;4.510;2024-03-25T10:37:05;9.38;;;3.90;;
15526;SDS011;7865;50.918;4.510;2024-03-25T10:42:13;9.40;;;2.83;;
15526;SDS011;7865;50.918;4.510;2024-03-25T10:47:19;9.20;;;3.65;;
15526;SDS011;7865;50.918;4.510;2024-03-25T10:52:26;7.93;;;2.80;;
15526;SDS011;7865;50.918;4.510;2024-03-25T10:57:30;6.82;;;3.05;;
15526;SDS011;7865;50.918;4.510;2024-03-25T11:02:32;7.95;;;3.47;;
15526;SDS011;7865;50.918;4.510;2024-03-25T11:07:33;4.38;;;2.28;;
15526;SDS011;7865;50.918;4.510;2024-03-25T11:12:35;5.90;;;2.47;;
15526;SDS011;7865;50.918;4.510;2024-03-25T11:17:37;7.57;;;2.67;;
15526;SDS011;7865;50.918;4.510;2024-03-25T11:22:50;3.70;;;1.90;;
15526;SDS011;7865;50.918;4.510;2024-03-25T11:27:52;4.15;;;1.90;;
15526;SDS011;7865;50.918;4.510;2024-03-25T11:32:53;8.45;;;2.92;;
15526;SDS011;7865;50.918;4.510;2024-03-25T11:37:55;4.88;;;2.28;;
15526;SDS011;7865;50.918;4.510;2024-03-25T11:42:58;5.38;;;2.28;;
15526;SDS011;7865;50.918;4.510;2024-03-25T11:47:59;11.77;;;3.30;;
15526;SDS011;7865;50.918;4.510;2024-03-25T11:53:03;4.47;;;2.22;;
15526;SDS011;7865;50.918;4.510;2024-03-25T11:58:06;4.93;;;2.50;;
15526;SDS011;7865;50.918;4.510;2024-03-25T12:03:08;7.80;;;2.72;;
15526;SDS011;7865;50.918;4.510;2024-03-25T12:08:12;5.72;;;2.30;;
15526;SDS011;7865;50.918;4.510;2024-03-25T12:13:14;6.25;;;2.25;;
15526;SDS011;7865;50.918;4.510;2024-03-25T12:18:16;4.95;;;1.88;;
15526;SDS011;7865;50.918;4.510;2024-03-25T12:23:17;9.10;;;2.47;;
15526;SDS011;7865;50.918;4.510;2024-03-25T12:28:20;5.22;;;2.10;;
15526;SDS011;7865;50.918;4.510;2024-03-25T12:33:22;5.25;;;2.13;;
15526;SDS011;7865;50.918;4.510;2024-03-25T12:38:31;6.43;;;2.15;;
15526;SDS011;7865;50.918;4.510;2024-03-25T12:43:32;4.65;;;2.42;;
15526;SDS011;7865;50.918;4.510;2024-03-25T12:48:36;4.93;;;1.88;;
15526;SDS011;7865;50.918;4.510;2024-03-25T12:53:38;4.30;;;1.92;;
15526;SDS011;7865;50.918;4.510;2024-03-25T12:58:40;3.17;;;1.95;;
15526;SDS011;7865;50.918;4.510;2024-03-25T13:03:42;4.35;;;2.03;;
15526;SDS011;7865;50.918;4.510;2024-03-25T13:08:43;4.57;;;2.40;;
15526;SDS011;7865;50.918;4.510;2024-03-25T13:13:44;5.15;;;2.00;;
15526;SDS011;7865;50.918;4.510;2024-03-25T13:18:47;5.95;;;2.08;;
15526;SDS011;7865;50.918;4.510;2024-03-25T13:23:48;5.13;;;2.22;;
15526;SDS011;7865;50.918;4.510;2024-03-25T13:28:49;4.80;;;2.20;;
15526;SDS011;7865;50.918;4.510;2024-03-25T13:33:50;4.43;;;1.70;;
15526;SDS011;7865;50.918;4.510;2024-03-25T13:38:52;2.95;;;1.88;;
15526;SDS011;7865;50.918;4.510;2024-03-25T13:43:54;4.90;;;2.00;;
15526;SDS011;7865;50.918;4.510;2024-03-25T13:48:55;3.15;;;2.00;;
15526;SDS011;7865;50.918;4.510;2024-03-25T13:53:56;6.13;;;2.20;;
15526;SDS011;7865;50.918;4.510;2024-03-25T13:59:05;4.28;;;1.98;;
15526;SDS011;7865;50.918;4.510;2024-03-25T14:04:06;7.65;;;2.20;;
15526;SDS011;7865;50.918;4.510;2024-03-25T14:09:07;4.68;;;1.90;;
15526;SDS011;7865;50.918;4.510;2024-03-25T14:14:23;3.38;;;1.52;;
15526;SDS011;7865;50.918;4.510;2024-03-25T14:19:24;2.80;;;1.73;;
15526;SDS011;7865;50.918;4.510;2024-03-25T14:24:26;3.75;;;1.45;;
15526;SDS011;7865;50.918;4.510;2024-03-25T14:29:27;5.03;;;1.90;;
15526;SDS011;7865;50.918;4.510;2024-03-25T14:34:28;2.95;;;1.65;;
15526;SDS011;7865;50.918;4.510;2024-03-25T14:39:29;2.92;;;1.40;;
15526;SDS011;7865;50.918;4.510;2024-03-25T14:44:30;4.25;;;1.50;;
15526;SDS011;7865;50.918;4.510;2024-03-25T14:49:31;2.53;;;1.40;;
15526;SDS011;7865;50.918;4.510;2024-03-25T14:54:33;3.78;;;1.70;;
15526;SDS011;7865;50.918;4.510;2024-03-25T14:59:35;1.90;;;1.70;;
15526;SDS011;7865;50.918;4.510;2024-03-25T15:04:36;2.95;;;1.58;;
15526;SDS011;7865;50.918;4.510;2024-03-25T15:09:37;2.92;;;1.10;;
15526;SDS011;7865;50.918;4.510;2024-03-25T15:14:38;2.25;;;1.55;;
15526;SDS011;7865;50.918;4.510;2024-03-25T15:19:40;2.55;;;1.50;;
15526;SDS011;7865;50.918;4.510;2024-03-25T15:24:41;3.40;;;1.60;;
15526;SDS011;7865;50.918;4.510;2024-03-25T15:29:42;4.53;;;1.75;;
15526;SDS011;7865;50.918;4.510;2024-03-25T15:34:44;2.63;;;1.40;;
15526;SDS011;7865;50.918;4.510;2024-03-25T15:39:45;3.63;;;1.70;;
15526;SDS011;7865;50.918;4.510;2024-03-25T15:44:46;2.75;;;1.48;;
15526;SDS011;7865;50.918;4.510;2024-03-25T15:49:47;3.30;;;1.70;;
15526;SDS011;7865;50.918;4.510;2024-03-25T15:54:50;2.87;;;1.57;;
15526;SDS011;7865;50.918;4.510;2024-03-25T15:59:52;2.37;;;1.30;;
15526;SDS011;7865;50.918;4.510;2024-03-25T16:04:53;2.90;;;1.47;;
15526;SDS011;7865;50.918;4.510;2024-03-25T16:09:54;3.00;;;1.52;;
15526;SDS011;7865;50.918;4.510;2024-03-25T16:14:55;1.83;;;1.23;;
15526;SDS011;7865;50.918;4.510;2024-03-25T16:19:59;3.77;;;2.00;;
15526;SDS011;7865;50.918;4.510;2024-03-25T16:25:01;3.70;;;2.07;;
15526;SDS011;7865;50.918;4.510;2024-03-25T16:30:02;2.40;;;1.37;;
15526;SDS011;7865;50.918;4.510;2024-03-25T16:35:04;2.60;;;1.40;;
15526;SDS011;7865;50.918;4.510;2024-03-25T16:40:06;2.50;;;1.50;;
15526;SDS011;7865;50.918;4.510;2024-03-25T16:45:07;1.87;;;1.23;;
15526;SDS011;7865;50.918;4.510;2024-03-25T16:50:09;2.73;;;1.30;;
15526;SDS011;7865;50.918;4.510;2024-03-25T16:55:10;3.97;;;1.60;;
15526;SDS011;7865;50.918;4.510;2024-03-25T17:00:11;3.87;;;1.50;;
15526;SDS011;7865;50.918;4.510;2024-03-25T17:05:13;3.23;;;1.77;;
15526;SDS011;7865;50.918;4.510;2024-03-25T17:10:15;4.03;;;1.40;;
15526;SDS011;7865;50.918;4.510;2024-03-25T17:15:16;3.90;;;1.70;;
15526;SDS011;7865;50.918;4.510;2024-03-25T17:20:17;2.07;;;1.53;;
15526;SDS011;7865;50.918;4.510;2024-03-25T17:25:19;2.57;;;1.60;;
15526;SDS011;7865;50.918;4.510;2024-03-25T17:30:20;3.40;;;1.67;;
15526;SDS011;7865;50.918;4.510;2024-03-25T17:35:21;3.77;;;1.60;;
15526;SDS011;7865;50.918;4.510;2024-03-25T17:40:22;2.60;;;1.40;;
15526;SDS011;7865;50.918;4.510;2024-03-25T17:45:23;3.17;;;1.60;;
15526;SDS011;7865;50.918;4.510;2024-03-25T17:50:28;3.13;;;1.23;;
15526;SDS011;7865;50.918;4.510;2024-03-25T17:55:30;3.47;;;1.70;;
15526;SDS011;7865;50.918;4.510;2024-03-25T18:00:31;3.07;;;1.50;;
15526;SDS011;7865;50.918;4.510;2024-03-25T18:05:32;2.40;;;1.57;;
15526;SDS011;7865;50.918;4.510;2024-03-25T18:10:33;4.17;;;1.53;;
15526;SDS011;7865;50.918;4.510;2024-03-25T18:15:34;2.53;;;1.50;;
15526;SDS011;7865;50.918;4.510;2024-03-25T18:20:35;5.30;;;1.67;;
15526;SDS011;7865;50.918;4.510;2024-03-25T18:25:37;2.93;;;1.93;;
15526;SDS011;7865;50.918;4.510;2024-03-25T18:30:39;4.53;;;1.70;;
15526;SDS011;7865;50.918;4.510;2024-03-25T18:35:41;5.37;;;2.27;;
15526;SDS011;7865;50.918;4.510;2024-03-25T18:40:43;1.50;;;1.40;;
15526;SDS011;7865;50.918;4.510;2024-03-25T18:45:44;3.97;;;1.70;;
15526;SDS011;7865;50.918;4.510;2024-03-25T18:50:45;2.00;;;1.40;;
15526;SDS011;7865;50.918;4.510;2024-03-25T18:55:46;6.60;;;1.97;;
15526;SDS011;7865;50.918;4.510;2024-03-25T19:00:48;4.17;;;1.70;;
15526;SDS011;7865;50.918;4.510;2024-03-25T19:05:49;2.80;;;1.77;;
15526;SDS011;7865;50.918;4.510;2024-03-25T19:10:50;3.50;;;2.10;;
15526;SDS011;7865;50.918;4.510;2024-03-25T19:15:51;5.40;;;2.30;;
15526;SDS011;7865;50.918;4.510;2024-03-25T19:20:52;4.23;;;2.70;;
15526;SDS011;7865;50.918;4.510;2024-03-25T19:25:53;6.50;;;2.07;;
15526;SDS011;7865;50.918;4.510;2024-03-25T19:30:55;6.10;;;2.17;;
15526;SDS011;7865;50.918;4.510;2024-03-25T19:35:59;4.03;;;2.37;;
15526;SDS011;7865;50.918;4.510;2024-03-25T19:41:06;3.67;;;2.10;;
15526;SDS011;7865;50.918;4.510;2024-03-25T19:46:07;5.53;;;3.00;;
15526;SDS011;7865;50.918;4.510;2024-03-25T19:51:09;4.53;;;2.80;;
15526;SDS011;7865;50.918;4.510;2024-03-25T19:56:10;4.80;;;2.83;;
15526;SDS011;7865;50.918;4.510;2024-03-25T20:01:14;5.00;;;3.00;;
15526;SDS011;7865;50.918;4.510;2024-03-25T20:06:18;5.37;;;3.00;;
15526;SDS011;7865;50.918;4.510;2024-03-25T20:11:19;4.83;;;3.17;;
15526;SDS011;7865;50.918;4.510;2024-03-25T20:16:21;4.93;;;3.17;;
15526;SDS011;7865;50.918;4.510;2024-03-25T20:21:22;5.10;;;3.40;;
15526;SDS011;7865;50.918;4.510;2024-03-25T20:26:24;9.03;;;3.83;;
15526;SDS011;7865;50.918;4.510;2024-03-25T20:31:25;6.00;;;3.43;;
15526;SDS011;7865;50.918;4.510;2024-03-25T20:36:26;5.77;;;3.30;;
15526;SDS011;7865;50.918;4.510;2024-03-25T20:41:27;5.67;;;3.30;;
15526;SDS011;7865;50.918;4.510;2024-03-25T20:46:28;6.33;;;3.37;;
15526;SDS011;7865;50.918;4.510;2024-03-25T20:51:29;6.67;;;2.83;;
15526;SDS011;7865;50.918;4.510;2024-03-25T20:56:30;5.83;;;3.67;;
15526;SDS011;7865;50.918;4.510;2024-03-25T21:01:32;6.37;;;4.03;;
15526;SDS011;7865;50.918;4.510;2024-03-25T21:06:33;4.83;;;3.80;;
15526;SDS011;7865;50.918;4.510;2024-03-25T21:11:34;7.63;;;3.87;;
15526;SDS011;7865;50.918;4.510;2024-03-25T21:16:35;7.63;;;4.00;;
15526;SDS011;7865;50.918;4.510;2024-03-25T21:21:36;7.03;;;4.23;;
15526;SDS011;7865;50.918;4.510;2024-03-25T21:26:37;9.30;;;4.13;;
15526;SDS011;7865;50.918;4.510;2024-03-25T21:31:39;8.57;;;4.27;;
15526;SDS011;7865;50.918;4.510;2024-03-25T21:36:41;8.73;;;3.97;;
15526;SDS011;7865;50.918;4.510;2024-03-25T21:41:43;10.87;;;4.40;;
15526;SDS011;7865;50.918;4.510;2024-03-25T21:46:45;7.30;;;3.53;;
15526;SDS011;7865;50.918;4.510;2024-03-25T21:51:47;9.00;;;4.50;;
15526;SDS011;7865;50.918;4.510;2024-03-25T21:56:48;9.70;;;4.20;;
15526;SDS011;7865;50.918;4.510;2024-03-25T22:01:49;8.43;;;4.43;;
15526;SDS011;7865;50.918;4.510;2024-03-25T22:06:51;7.47;;;3.80;;
15526;SDS011;7865;50.918;4.510;2024-03-25T22:11:54;6.77;;;4.47;;
15526;SDS011;7865;50.918;4.510;2024-03-25T22:16:56;6.10;;;3.90;;
15526;SDS011;7865;50.918;4.510;2024-03-25T22:21:58;7.50;;;3.83;;
15526;SDS011;7865;50.918;4.510;2024-03-25T22:26:59;6.70;;;3.70;;
15526;SDS011;7865;50.918;4.510;2024-03-25T22:32:01;6.13;;;3.90;;
15526;SDS011;7865;50.918;4.510;2024-03-25T22:37:02;5.33;;;4.10;;
15526;SDS011;7865;50.918;4.510;2024-03-25T22:42:04;7.87;;;4.47;;
15526;SDS011;7865;50.918;4.510;2024-03-25T22:47:05;6.43;;;3.20;;
15526;SDS011;7865;50.918;4.510;2024-03-25T22:52:06;3.83;;;3.20;;
15526;SDS011;7865;50.918;4.510;2024-03-25T22:57:07;6.57;;;3.60;;
15526;SDS011;7865;50.918;4.510;2024-03-25T23:02:09;4.43;;;2.70;;
15526;SDS011;7865;50.918;4.510;2024-03-25T23:07:10;4.40;;;3.03;;
15526;SDS011;7865;50.918;4.510;2024-03-25T23:12:11;7.40;;;3.07;;
15526;SDS011;7865;50.918;4.510;2024-03-25T23:17:12;5.73;;;2.77;;
15526;SDS011;7865;50.918;4.510;2024-03-25T23:22:14;4.50;;;3.03;;
15526;SDS011;7865;50.918;4.510;2024-03-25T23:27:15;7.17;;;2.60;;
15526;SDS011;7865;50.918;4.510;2024-03-25T23:32:16;6.03;;;3.30;;
15526;SDS011;7865;50.918;4.510;2024-03-25T23:37:17;3.03;;;2.17;;
15526;SDS011;7865;50.918;4.510;2024-03-25T23:42:18;4.97;;;2.40;;
15526;SDS011;7865;50.918;4.510;2024-03-25T23:47:19;7.00;;;2.90;;
15526;SDS011;7865;50.918;4.510;2024-03-25T23:52:21;9.03;;;2.93;;
15526;SDS011;7865;50.918;4.510;2024-03-25T23:57:22;6.57;;;2.73;;
